sensor_id;sensor_type;location;lat;lon;timestamp;pressure;altitude;pressure_sealevel;temperature;humidity
62152;BME280;48139;47.474;19.034;2023-05-03T03:39:13;100723.09;;;13.85;100.00
62152;BME280;48139;47.474;19.034;2023-05-03T03:42:19;100723.09;;;13.85;100.00
62152;BME280;48139;47.474;19.034;2023-05-03T03:45:23;100733.38;;;13.41;100.00
62152;BME280;48139;47.474;19.034;2023-05-03T03:48:26;100732.97;;;13.48;100.00
62152;BME280;48139;47.474;19.034;2023-05-03T03:51:29;100735.03;;;13.59;100.00
62152;BME280;48139;47.474;19.034;2023-05-03T03:54:33;100731.47;;;13.60;100.00
62152;BME280;48139;47.474;19.034;2023-05-03T03:57:38;100726.78;;;13.65;100.00
62152;BME280;48139;47.474;19.034;2023-05-03T04:00:41;100739.03;;;13.66;100.00
62152;BME280;48139;47.474;19.034;2023-05-03T04:03:45;100732.72;;;13.68;100.00
62152;BME280;48139;47.474;19.034;2023-05-03T04:06:49;100741.59;;;13.67;100.00
62152;BME280;48139;47.474;19.034;2023-05-03T04:09:52;100744.28;;;13.66;100.00
62152;BME280;48139;47.474;19.034;2023-05-03T04:12:54;100748.47;;;13.70;100.00
62152;BME280;48139;47.474;19.034;2023-05-03T04:15:57;100746.28;;;13.78;100.00
62152;BME280;48139;47.474;19.034;2023-05-03T04:19:00;100747.03;;;13.80;100.00
62152;BME280;48139;47.474;19.034;2023-05-03T04:22:05;100747.03;;;13.80;100.00
62152;BME280;48139;47.474;19.034;2023-05-03T04:25:10;100752.47;;;13.77;100.00
62152;BME280;48139;47.474;19.034;2023-05-03T04:28:15;100751.97;;;13.86;100.00
62152;BME280;48139;47.474;19.034;2023-05-03T04:31:18;100744.84;;;14.04;100.00
62152;BME280;48139;47.474;19.034;2023-05-03T04:34:23;100746.38;;;14.08;100.00
62152;BME280;48139;47.474;19.034;2023-05-03T04:37:26;100751.12;;;14.01;100.00
62152;BME280;48139;47.474;19.034;2023-05-03T04:40:29;100749.84;;;14.08;100.00
62152;BME280;48139;47.474;19.034;2023-05-03T04:43:33;100753.94;;;14.14;100.00
62152;BME280;48139;47.474;19.034;2023-05-03T04:46:36;100754.53;;;14.19;100.00
62152;BME280;48139;47.474;19.034;2023-05-03T04:49:39;100753.09;;;14.29;100.00
62152;BME280;48139;47.474;19.034;2023-05-03T04:52:41;100761.84;;;14.30;100.00
62152;BME280;48139;47.474;19.034;2023-05-03T04:55:45;100766.28;;;14.29;100.00
62152;BME280;48139;47.474;19.034;2023-05-03T04:58:49;100763.19;;;14.37;100.00
62152;BME280;48139;47.474;19.034;2023-05-03T05:01:52;100761.19;;;14.42;100.00
62152;BME280;48139;47.474;19.034;2023-05-03T05:04:55;100764.56;;;14.44;100.00
62152;BME280;48139;47.474;19.034;2023-05-03T05:07:58;100767.03;;;14.47;100.00
62152;BME280;48139;47.474;19.034;2023-05-03T05:11:03;100764.16;;;14.51;100.00
62152;BME280;48139;47.474;19.034;2023-05-03T05:14:06;100761.00;;;14.61;100.00
62152;BME280;48139;47.474;19.034;2023-05-03T05:17:09;100762.44;;;14.66;100.00
62152;BME280;48139;47.474;19.034;2023-05-03T05:20:12;100756.81;;;14.72;100.00
62152;BME280;48139;47.474;19.034;2023-05-03T05:23:16;100759.66;;;14.83;100.00
62152;BME280;48139;47.474;19.034;2023-05-03T05:26:20;100761.94;;;14.89;100.00
62152;BME280;48139;47.474;19.034;2023-05-03T05:29:23;100769.56;;;14.94;100.00
62152;BME280;48139;47.474;19.034;2023-05-03T05:32:26;100765.72;;;15.00;100.00
62152;BME280;48139;47.474;19.034;2023-05-03T05:35:30;100765.97;;;15.11;100.00
62152;BME280;48139;47.474;19.034;2023-05-03T05:38:33;100768.59;;;15.25;100.00
62152;BME280;48139;47.474;19.034;2023-05-03T05:41:37;100767.78;;;15.39;100.00
62152;BME280;48139;47.474;19.034;2023-05-03T05:44:39;100769.25;;;15.58;100.00
62152;BME280;48139;47.474;19.034;2023-05-03T05:47:42;100769.34;;;15.71;100.00
62152;BME280;48139;47.474;19.034;2023-05-03T05:50:47;100773.59;;;15.73;100.00
62152;BME280;48139;47.474;19.034;2023-05-03T05:53:50;100773.88;;;15.83;100.00
62152;BME280;48139;47.474;19.034;2023-05-03T05:56:53;100776.72;;;15.80;100.00
62152;BME280;48139;47.474;19.034;2023-05-03T05:59:56;100795.00;;;15.69;100.00
62152;BME280;48139;47.474;19.034;2023-05-03T06:02:59;100798.00;;;15.63;100.00
62152;BME280;48139;47.474;19.034;2023-05-03T06:06:02;100800.78;;;15.61;100.00
62152;BME280;48139;47.474;19.034;2023-05-03T06:09:05;100809.34;;;15.65;100.00
62152;BME280;48139;47.474;19.034;2023-05-03T06:12:26;100812.84;;;15.65;100.00
62152;BME280;48139;47.474;19.034;2023-05-03T06:15:29;100823.41;;;15.65;100.00
62152;BME280;48139;47.474;19.034;2023-05-03T06:18:32;100826.69;;;15.69;100.00
62152;BME280;48139;47.474;19.034;2023-05-03T06:21:34;100827.16;;;15.76;100.00
62152;BME280;48139;47.474;19.034;2023-05-03T06:24:37;100828.22;;;15.87;100.00
62152;BME280;48139;47.474;19.034;2023-05-03T06:27:40;100833.50;;;16.16;100.00
62152;BME280;48139;47.474;19.034;2023-05-03T06:30:48;100830.09;;;16.28;100.00
62152;BME280;48139;47.474;19.034;2023-05-03T06:33:50;100838.53;;;16.47;100.00
62152;BME280;48139;47.474;19.034;2023-05-03T06:36:54;100846.94;;;16.53;100.00
62152;BME280;48139;47.474;19.034;2023-05-03T06:39:57;100845.03;;;16.70;100.00
62152;BME280;48139;47.474;19.034;2023-05-03T06:43:00;100850.63;;;16.92;100.00
62152;BME280;48139;47.474;19.034;2023-05-03T06:46:05;100851.91;;;16.99;100.00
62152;BME280;48139;47.474;19.034;2023-05-03T06:49:09;100849.56;;;17.21;100.00
62152;BME280;48139;47.474;19.034;2023-05-03T06:52:12;100846.19;;;17.32;100.00
62152;BME280;48139;47.474;19.034;2023-05-03T06:55:15;100849.31;;;17.64;100.00
62152;BME280;48139;47.474;19.034;2023-05-03T06:58:17;100843.84;;;17.80;100.00
62152;BME280;48139;47.474;19.034;2023-05-03T07:01:20;100846.78;;;17.88;100.00
62152;BME280;48139;47.474;19.034;2023-05-03T07:04:22;100839.06;;;17.85;100.00
62152;BME280;48139;47.474;19.034;2023-05-03T07:07:25;100833.75;;;17.97;100.00
62152;BME280;48139;47.474;19.034;2023-05-03T07:10:29;100835.19;;;18.14;100.00
62152;BME280;48139;47.474;19.034;2023-05-03T07:13:33;100841.22;;;18.29;100.00
62152;BME280;48139;47.474;19.034;2023-05-03T07:16:35;100841.50;;;18.37;100.00
62152;BME280;48139;47.474;19.034;2023-05-03T07:19:38;100835.94;;;18.29;100.00
62152;BME280;48139;47.474;19.034;2023-05-03T07:22:41;100836.09;;;18.38;100.00
62152;BME280;48139;47.474;19.034;2023-05-03T07:25:44;100831.09;;;18.46;100.00
62152;BME280;48139;47.474;19.034;2023-05-03T07:28:47;100837.50;;;18.68;100.00
62152;BME280;48139;47.474;19.034;2023-05-03T07:31:49;100842.03;;;19.02;100.00
62152;BME280;48139;47.474;19.034;2023-05-03T07:34:56;100832.03;;;19.06;100.00
62152;BME280;48139;47.474;19.034;2023-05-03T07:37:59;100840.34;;;19.01;100.00
62152;BME280;48139;47.474;19.034;2023-05-03T07:41:01;100840.28;;;19.14;100.00
62152;BME280;48139;47.474;19.034;2023-05-03T07:44:05;100845.69;;;19.12;100.00
62152;BME280;48139;47.474;19.034;2023-05-03T07:47:07;100845.84;;;19.11;100.00
62152;BME280;48139;47.474;19.034;2023-05-03T07:50:11;100846.44;;;19.14;100.00
62152;BME280;48139;47.474;19.034;2023-05-03T07:53:13;100842.53;;;19.07;100.00
62152;BME280;48139;47.474;19.034;2023-05-03T07:56:16;100854.31;;;19.16;100.00
62152;BME280;48139;47.474;19.034;2023-05-03T07:59:18;100842.19;;;19.12;100.00
62152;BME280;48139;47.474;19.034;2023-05-03T08:02:21;100850.81;;;19.26;100.00
62152;BME280;48139;47.474;19.034;2023-05-03T08:05:24;100854.16;;;19.41;100.00
62152;BME280;48139;47.474;19.034;2023-05-03T08:08:27;100852.28;;;19.54;100.00
62152;BME280;48139;47.474;19.034;2023-05-03T08:11:29;100858.00;;;19.72;100.00
62152;BME280;48139;47.474;19.034;2023-05-03T08:14:32;100857.16;;;19.71;88.66
62152;BME280;48139;47.474;19.034;2023-05-03T08:17:43;100859.06;;;19.69;90.80
62152;BME280;48139;47.474;19.034;2023-05-03T08:20:47;100866.44;;;19.77;89.42
62152;BME280;48139;47.474;19.034;2023-05-03T08:23:50;100873.00;;;19.84;87.44
62152;BME280;48139;47.474;19.034;2023-05-03T08:26:53;100857.87;;;19.85;83.73
62152;BME280;48139;47.474;19.034;2023-05-03T08:29:57;100864.19;;;19.95;86.08
62152;BME280;48139;47.474;19.034;2023-05-03T08:32:59;100867.69;;;20.06;87.17
62152;BME280;48139;47.474;19.034;2023-05-03T08:36:02;100872.03;;;20.19;83.78
62152;BME280;48139;47.474;19.034;2023-05-03T08:39:04;100871.88;;;19.64;83.05
62152;BME280;48139;47.474;19.034;2023-05-03T08:42:08;100861.16;;;19.42;87.12
62152;BME280;48139;47.474;19.034;2023-05-03T08:45:18;100870.56;;;19.35;93.34
62152;BME280;48139;47.474;19.034;2023-05-03T08:48:21;100874.44;;;19.42;87.31
62152;BME280;48139;47.474;19.034;2023-05-03T08:51:23;100871.63;;;19.32;89.99
62152;BME280;48139;47.474;19.034;2023-05-03T08:54:27;100881.19;;;19.35;88.14
62152;BME280;48139;47.474;19.034;2023-05-03T08:57:29;100871.41;;;19.36;88.48
62152;BME280;48139;47.474;19.034;2023-05-03T09:00:33;100873.94;;;19.61;86.31
62152;BME280;48139;47.474;19.034;2023-05-03T09:03:35;100873.09;;;19.83;92.22
62152;BME280;48139;47.474;19.034;2023-05-03T09:06:38;100866.34;;;20.12;82.32
62152;BME280;48139;47.474;19.034;2023-05-03T09:09:41;100876.66;;;20.50;87.72
62152;BME280;48139;47.474;19.034;2023-05-03T09:12:48;100878.38;;;20.94;80.11
62152;BME280;48139;47.474;19.034;2023-05-03T09:15:55;100876.00;;;21.12;76.08
62152;BME280;48139;47.474;19.034;2023-05-03T09:19:09;100868.84;;;21.12;74.51
62152;BME280;48139;47.474;19.034;2023-05-03T09:22:13;100874.97;;;21.03;80.68
62152;BME280;48139;47.474;19.034;2023-05-03T09:25:22;100872.31;;;21.03;78.34
62152;BME280;48139;47.474;19.034;2023-05-03T09:28:24;100874.03;;;20.82;75.43
62152;BME280;48139;47.474;19.034;2023-05-03T09:31:33;100870.47;;;20.61;79.65
62152;BME280;48139;47.474;19.034;2023-05-03T09:34:35;100872.69;;;20.87;84.30
62152;BME280;48139;47.474;19.034;2023-05-03T09:37:38;100867.22;;;21.00;78.16
62152;BME280;48139;47.474;19.034;2023-05-03T09:40:47;100873.88;;;20.94;82.05
62152;BME280;48139;47.474;19.034;2023-05-03T09:43:51;100874.37;;;20.88;76.58
62152;BME280;48139;47.474;19.034;2023-05-03T09:47:04;100871.41;;;20.71;76.84
62152;BME280;48139;47.474;19.034;2023-05-03T09:50:07;100867.16;;;20.79;81.83
62152;BME280;48139;47.474;19.034;2023-05-03T09:53:10;100869.19;;;20.98;83.29
62152;BME280;48139;47.474;19.034;2023-05-03T09:56:13;100873.31;;;21.55;94.47
62152;BME280;48139;47.474;19.034;2023-05-03T09:59:16;100878.69;;;21.64;79.05
62152;BME280;48139;47.474;19.034;2023-05-03T10:02:19;100871.34;;;21.78;88.17
62152;BME280;48139;47.474;19.034;2023-05-03T10:05:24;100873.69;;;21.29;77.87
62152;BME280;48139;47.474;19.034;2023-05-03T10:08:35;100869.00;;;21.11;87.00
62152;BME280;48139;47.474;19.034;2023-05-03T10:11:47;100867.34;;;20.99;76.17
62152;BME280;48139;47.474;19.034;2023-05-03T10:14:51;100868.38;;;20.75;84.72
62152;BME280;48139;47.474;19.034;2023-05-03T10:17:56;100861.66;;;21.03;83.26
62152;BME280;48139;47.474;19.034;2023-05-03T10:21:07;100862.94;;;21.20;77.47
62152;BME280;48139;47.474;19.034;2023-05-03T10:24:12;100864.50;;;21.22;76.79
62152;BME280;48139;47.474;19.034;2023-05-03T10:27:15;100873.88;;;20.94;75.49
62152;BME280;48139;47.474;19.034;2023-05-03T10:30:34;100858.97;;;20.71;77.94
62152;BME280;48139;47.474;19.034;2023-05-03T10:33:37;100864.59;;;20.89;77.61
62152;BME280;48139;47.474;19.034;2023-05-03T10:36:41;100860.84;;;20.91;80.28
62152;BME280;48139;47.474;19.034;2023-05-03T10:39:52;100863.34;;;20.61;78.54
62152;BME280;48139;47.474;19.034;2023-05-03T10:42:55;100853.50;;;20.62;78.20
62152;BME280;48139;47.474;19.034;2023-05-03T10:46:03;100856.44;;;20.59;82.52
62152;BME280;48139;47.474;19.034;2023-05-03T10:49:24;100854.06;;;20.33;83.41
62152;BME280;48139;47.474;19.034;2023-05-03T10:55:37;100851.19;;;20.68;87.41
62152;BME280;48139;47.474;19.034;2023-05-03T10:58:42;100841.69;;;20.43;85.60
62152;BME280;48139;47.474;19.034;2023-05-03T11:01:45;100850.78;;;20.30;84.79
62152;BME280;48139;47.474;19.034;2023-05-03T11:04:50;100842.34;;;20.36;79.79
62152;BME280;48139;47.474;19.034;2023-05-03T11:08:10;100849.53;;;20.56;95.29
62152;BME280;48139;47.474;19.034;2023-05-03T11:11:14;100846.50;;;20.72;81.23
62152;BME280;48139;47.474;19.034;2023-05-03T11:14:17;100841.84;;;20.42;85.32
62152;BME280;48139;47.474;19.034;2023-05-03T11:17:19;100836.50;;;20.20;80.73
62152;BME280;48139;47.474;19.034;2023-05-03T11:20:22;100853.53;;;20.06;80.48
62152;BME280;48139;47.474;19.034;2023-05-03T11:23:27;100847.25;;;20.18;81.38
62152;BME280;48139;47.474;19.034;2023-05-03T11:26:36;100849.31;;;20.14;80.81
62152;BME280;48139;47.474;19.034;2023-05-03T11:29:39;100849.66;;;19.88;81.87
62152;BME280;48139;47.474;19.034;2023-05-03T11:32:43;100841.56;;;19.78;81.36
62152;BME280;48139;47.474;19.034;2023-05-03T11:35:45;100847.59;;;19.69;82.96
62152;BME280;48139;47.474;19.034;2023-05-03T11:38:48;100851.56;;;19.63;83.69
62152;BME280;48139;47.474;19.034;2023-05-03T11:42:00;100850.34;;;19.56;82.32
62152;BME280;48139;47.474;19.034;2023-05-03T11:45:04;100840.06;;;19.63;83.79
62152;BME280;48139;47.474;19.034;2023-05-03T11:48:07;100839.88;;;19.66;81.37
62152;BME280;48139;47.474;19.034;2023-05-03T11:51:10;100840.44;;;19.47;81.77
62152;BME280;48139;47.474;19.034;2023-05-03T11:54:14;100838.25;;;19.52;85.77
62152;BME280;48139;47.474;19.034;2023-05-03T11:57:24;100835.97;;;19.48;84.31
62152;BME280;48139;47.474;19.034;2023-05-03T12:00:27;100837.34;;;19.29;85.02
62152;BME280;48139;47.474;19.034;2023-05-03T12:03:31;100834.16;;;19.48;86.13
62152;BME280;48139;47.474;19.034;2023-05-03T12:06:36;100840.13;;;19.85;87.62
62152;BME280;48139;47.474;19.034;2023-05-03T12:09:40;100838.31;;;20.08;85.14
62152;BME280;48139;47.474;19.034;2023-05-03T12:12:53;100836.72;;;19.94;83.86
62152;BME280;48139;47.474;19.034;2023-05-03T12:15:59;100839.16;;;19.86;81.68
62152;BME280;48139;47.474;19.034;2023-05-03T12:19:27;100837.59;;;19.84;84.03
62152;BME280;48139;47.474;19.034;2023-05-03T12:22:34;100837.91;;;19.68;81.70
62152;BME280;48139;47.474;19.034;2023-05-03T12:25:37;100831.62;;;19.69;83.00
62152;BME280;48139;47.474;19.034;2023-05-03T12:28:46;100828.59;;;19.62;81.58
62152;BME280;48139;47.474;19.034;2023-05-03T12:31:49;100826.47;;;19.79;81.86
62152;BME280;48139;47.474;19.034;2023-05-03T12:34:54;100819.66;;;19.63;82.45
62152;BME280;48139;47.474;19.034;2023-05-03T12:37:58;100813.88;;;19.81;81.96
62152;BME280;48139;47.474;19.034;2023-05-03T12:41:04;100813.28;;;19.77;82.45
62152;BME280;48139;47.474;19.034;2023-05-03T12:44:10;100827.78;;;19.73;82.45
62152;BME280;48139;47.474;19.034;2023-05-03T12:47:18;100818.34;;;19.58;83.97
62152;BME280;48139;47.474;19.034;2023-05-03T12:50:31;100817.38;;;19.70;84.98
62152;BME280;48139;47.474;19.034;2023-05-03T12:53:38;100811.94;;;19.60;82.33
62152;BME280;48139;47.474;19.034;2023-05-03T12:56:41;100803.34;;;19.68;85.45
62152;BME280;48139;47.474;19.034;2023-05-03T12:59:49;100799.87;;;19.67;83.53
62152;BME280;48139;47.474;19.034;2023-05-03T13:03:03;100801.91;;;19.64;82.88
62152;BME280;48139;47.474;19.034;2023-05-03T13:06:09;100801.06;;;19.74;82.78
62152;BME280;48139;47.474;19.034;2023-05-03T13:09:15;100800.59;;;19.81;83.18
62152;BME280;48139;47.474;19.034;2023-05-03T13:12:23;100804.09;;;19.70;84.25
62152;BME280;48139;47.474;19.034;2023-05-03T13:15:30;100796.47;;;19.54;88.00
62152;BME280;48139;47.474;19.034;2023-05-03T13:18:33;100807.13;;;19.65;86.70
62152;BME280;48139;47.474;19.034;2023-05-03T13:21:36;100800.69;;;19.68;87.51
62152;BME280;48139;47.474;19.034;2023-05-03T13:24:40;100800.47;;;19.49;89.49
62152;BME280;48139;47.474;19.034;2023-05-03T13:27:42;100801.06;;;19.52;90.60
62152;BME280;48139;47.474;19.034;2023-05-03T13:30:46;100795.84;;;19.51;93.28
62152;BME280;48139;47.474;19.034;2023-05-03T13:33:50;100791.75;;;19.69;92.16
62152;BME280;48139;47.474;19.034;2023-05-03T13:36:57;100786.94;;;19.85;92.83
62152;BME280;48139;47.474;19.034;2023-05-03T13:40:00;100790.44;;;19.97;92.32
62152;BME280;48139;47.474;19.034;2023-05-03T13:43:03;100792.25;;;20.30;90.81
62152;BME280;48139;47.474;19.034;2023-05-03T13:46:06;100782.87;;;20.58;97.30
62152;BME280;48139;47.474;19.034;2023-05-03T13:49:09;100784.50;;;20.38;96.79
62152;BME280;48139;47.474;19.034;2023-05-03T13:52:11;100784.34;;;20.50;90.04
62152;BME280;48139;47.474;19.034;2023-05-03T13:55:14;100788.59;;;20.31;94.57
62152;BME280;48139;47.474;19.034;2023-05-03T13:58:17;100785.34;;;20.38;91.22
62152;BME280;48139;47.474;19.034;2023-05-03T14:01:19;100772.66;;;20.08;90.21
62152;BME280;48139;47.474;19.034;2023-05-03T14:04:22;100777.00;;;20.21;93.05
62152;BME280;48139;47.474;19.034;2023-05-03T14:07:26;100775.87;;;20.45;87.74
62152;BME280;48139;47.474;19.034;2023-05-03T14:10:33;100782.78;;;20.26;88.24
62152;BME280;48139;47.474;19.034;2023-05-03T14:13:36;100773.34;;;20.44;86.66
62152;BME280;48139;47.474;19.034;2023-05-03T14:16:56;100769.25;;;20.40;84.48
62152;BME280;48139;47.474;19.034;2023-05-03T14:19:59;100767.22;;;20.32;82.85
62152;BME280;48139;47.474;19.034;2023-05-03T14:23:03;100762.00;;;20.42;84.13
62152;BME280;48139;47.474;19.034;2023-05-03T14:26:06;100758.97;;;20.46;82.39
62152;BME280;48139;47.474;19.034;2023-05-03T14:29:09;100767.56;;;20.05;85.90
62152;BME280;48139;47.474;19.034;2023-05-03T14:32:11;100761.56;;;19.92;86.82
62152;BME280;48139;47.474;19.034;2023-05-03T14:35:14;100758.78;;;19.94;86.12
62152;BME280;48139;47.474;19.034;2023-05-03T14:38:21;100757.94;;;20.04;86.31
62152;BME280;48139;47.474;19.034;2023-05-03T14:41:25;100761.50;;;20.37;83.38
62152;BME280;48139;47.474;19.034;2023-05-03T14:44:27;100758.53;;;20.08;83.21
62152;BME280;48139;47.474;19.034;2023-05-03T14:47:30;100769.16;;;20.08;85.88
62152;BME280;48139;47.474;19.034;2023-05-03T14:50:33;100766.75;;;19.83;86.89
62152;BME280;48139;47.474;19.034;2023-05-03T14:53:36;100758.66;;;19.62;89.75
62152;BME280;48139;47.474;19.034;2023-05-03T14:56:38;100759.88;;;19.69;88.47
62152;BME280;48139;47.474;19.034;2023-05-03T14:59:41;100757.81;;;19.61;87.77
62152;BME280;48139;47.474;19.034;2023-05-03T15:02:44;100766.88;;;19.59;87.54
62152;BME280;48139;47.474;19.034;2023-05-03T15:05:48;100757.69;;;19.74;85.53
62152;BME280;48139;47.474;19.034;2023-05-03T15:08:51;100762.59;;;19.45;90.83
62152;BME280;48139;47.474;19.034;2023-05-03T15:11:54;100766.09;;;19.34;94.85
62152;BME280;48139;47.474;19.034;2023-05-03T15:14:57;100768.38;;;19.28;96.95
62152;BME280;48139;47.474;19.034;2023-05-03T15:18:00;100763.13;;;19.50;96.12
62152;BME280;48139;47.474;19.034;2023-05-03T15:21:04;100753.88;;;19.43;95.23
62152;BME280;48139;47.474;19.034;2023-05-03T15:24:08;100770.66;;;19.21;97.57
62152;BME280;48139;47.474;19.034;2023-05-03T15:27:11;100764.09;;;19.14;99.23
62152;BME280;48139;47.474;19.034;2023-05-03T15:30:14;100770.84;;;19.07;100.00
62152;BME280;48139;47.474;19.034;2023-05-03T15:33:18;100768.16;;;18.96;100.00
62152;BME280;48139;47.474;19.034;2023-05-03T15:36:21;100773.09;;;18.89;100.00
62152;BME280;48139;47.474;19.034;2023-05-03T15:39:24;100772.13;;;18.90;100.00
62152;BME280;48139;47.474;19.034;2023-05-03T15:42:27;100767.34;;;18.72;100.00
62152;BME280;48139;47.474;19.034;2023-05-03T15:45:29;100777.47;;;18.67;100.00
62152;BME280;48139;47.474;19.034;2023-05-03T15:48:32;100781.28;;;18.63;100.00
62152;BME280;48139;47.474;19.034;2023-05-03T15:51:34;100781.53;;;18.47;100.00
